RYR5BC LIBD-LICJ
Flight info
| Callsign | RYR5BC |
|---|---|
| Flight time | 0h 54m |
| Altitude | 33000 |
| Route | TOPNO DCT BUMOK DCT KUTID DCT AMANO/N0370F190 M742 ROSAS |
| Aircraft | B738/M-SDE3FGILRWY/SB1 |
Departure
| Time | 2026-04-27 17:53 |
|---|---|
| Airport | Bari Karol Wojtyła International Airport (LIBD) |
Arrival
| Time | 2026-04-27 18:48 |
|---|---|
| Airport | Falcone–Borsellino Airport (LICJ) |
| Time | Latitude | Longitude | Altitude | Speed | Heading |
|---|---|---|---|---|---|
| 2026-04-27 17:24 | 41.13514 | 16.76292 | 135 ft | 0 kts | 160° |
| 2026-04-27 17:46 | 41.13530 | 16.76285 | 135 ft | 4 kts | 166° |
| 2026-04-27 17:46 | 41.13556 | 16.76279 | 135 ft | 4 kts | 184° |
| 2026-04-27 17:46 | 41.13580 | 16.76288 | 135 ft | 4 kts | 225° |
| 2026-04-27 17:46 | 41.13588 | 16.76303 | 135 ft | 1 kts | 254° |
| 2026-04-27 17:47 | 41.13589 | 16.76306 | 135 ft | 0 kts | 254° |
| 2026-04-27 17:49 | 41.13583 | 16.76278 | 135 ft | 7 kts | 254° |
| 2026-04-27 17:49 | 41.13558 | 16.76185 | 135 ft | 15 kts | 249° |
| 2026-04-27 17:49 | 41.13609 | 16.76056 | 135 ft | 21 kts | 321° |
| 2026-04-27 17:50 | 41.13609 | 16.75863 | 136 ft | 25 kts | 249° |
| 2026-04-27 17:50 | 41.13493 | 16.75458 | 142 ft | 22 kts | 249° |
| 2026-04-27 17:50 | 41.13439 | 16.75266 | 141 ft | 22 kts | 249° |
| 2026-04-27 17:51 | 41.13387 | 16.75080 | 147 ft | 21 kts | 250° |
| 2026-04-27 17:51 | 41.13336 | 16.74899 | 147 ft | 21 kts | 249° |
| 2026-04-27 17:51 | 41.13286 | 16.74725 | 149 ft | 20 kts | 249° |
| 2026-04-27 17:51 | 41.13238 | 16.74555 | 151 ft | 19 kts | 249° |
| 2026-04-27 17:52 | 41.13191 | 16.74391 | 153 ft | 19 kts | 249° |
| 2026-04-27 17:52 | 41.13174 | 16.74227 | 150 ft | 19 kts | 293° |
| 2026-04-27 17:52 | 41.13271 | 16.74108 | 144 ft | 21 kts | 7° |
| 2026-04-27 17:52 | 41.13354 | 16.74299 | 146 ft | 40 kts | 69° |
| 2026-04-27 17:53 | 41.13536 | 16.74942 | 137 ft | 108 kts | 69° |
| 2026-04-27 17:53 | 41.13865 | 16.76112 | 181 ft | 155 kts | 69° |
| 2026-04-27 17:53 | 41.14237 | 16.77440 | 791 ft | 158 kts | 70° |
| 2026-04-27 17:53 | 41.14623 | 16.78811 | 1458 ft | 159 kts | 69° |
| 2026-04-27 17:54 | 41.15016 | 16.80195 | 2104 ft | 163 kts | 69° |
| 2026-04-27 17:54 | 41.15423 | 16.81626 | 2729 ft | 167 kts | 69° |
| 2026-04-27 17:54 | 41.15833 | 16.83070 | 3399 ft | 169 kts | 69° |
| 2026-04-27 17:54 | 41.16276 | 16.84628 | 3732 ft | 194 kts | 69° |
| 2026-04-27 17:55 | 41.16783 | 16.86415 | 3950 ft | 219 kts | 69° |
| 2026-04-27 17:55 | 41.17347 | 16.88405 | 4131 ft | 242 kts | 69° |
| 2026-04-27 17:55 | 41.17964 | 16.90579 | 4457 ft | 259 kts | 69° |
| 2026-04-27 17:55 | 41.18594 | 16.92848 | 5180 ft | 263 kts | 73° |
| 2026-04-27 17:56 | 41.18787 | 16.95260 | 5968 ft | 265 kts | 91° |
| 2026-04-27 17:56 | 41.18727 | 16.97712 | 6734 ft | 268 kts | 91° |
| 2026-04-27 17:56 | 41.18628 | 17.00196 | 7490 ft | 272 kts | 100° |
| 2026-04-27 17:56 | 41.17855 | 17.02473 | 8247 ft | 275 kts | 128° |
| 2026-04-27 17:57 | 41.16519 | 17.04316 | 9033 ft | 279 kts | 136° |
| 2026-04-27 17:57 | 41.15098 | 17.06098 | 9817 ft | 283 kts | 136° |
| 2026-04-27 17:57 | 41.13659 | 17.07892 | 10603 ft | 286 kts | 140° |
| 2026-04-27 17:57 | 41.11904 | 17.09119 | 11370 ft | 288 kts | 168° |
| 2026-04-27 17:58 | 41.09921 | 17.09118 | 12196 ft | 288 kts | 196° |
| 2026-04-27 17:58 | 41.08140 | 17.07950 | 12985 ft | 288 kts | 220° |
| 2026-04-27 17:58 | 41.06689 | 17.06107 | 13777 ft | 291 kts | 227° |
| 2026-04-27 17:58 | 41.05285 | 17.04150 | 14560 ft | 295 kts | 228° |
| 2026-04-27 17:59 | 41.03886 | 17.02149 | 15357 ft | 297 kts | 234° |
| 2026-04-27 17:59 | 41.02988 | 16.99690 | 15989 ft | 304 kts | 257° |
| 2026-04-27 17:59 | 41.02607 | 16.96826 | 16178 ft | 328 kts | 264° |
| 2026-04-27 17:59 | 41.02352 | 16.93724 | 16361 ft | 350 kts | 265° |
| 2026-04-27 18:00 | 41.02112 | 16.90423 | 16677 ft | 367 kts | 265° |
| 2026-04-27 18:00 | 41.01867 | 16.87068 | 17256 ft | 374 kts | 265° |
| 2026-04-27 18:00 | 41.01604 | 16.83636 | 18105 ft | 375 kts | 265° |
| 2026-04-27 18:00 | 41.01332 | 16.80196 | 18854 ft | 378 kts | 265° |
| 2026-04-27 18:01 | 41.01040 | 16.76677 | 19450 ft | 382 kts | 265° |
| 2026-04-27 18:01 | 41.00750 | 16.73207 | 20075 ft | 386 kts | 265° |
| 2026-04-27 18:01 | 41.00445 | 16.69665 | 20750 ft | 389 kts | 265° |
| 2026-04-27 18:01 | 41.00133 | 16.66098 | 21404 ft | 391 kts | 265° |
| 2026-04-27 18:02 | 40.99820 | 16.62509 | 21990 ft | 394 kts | 265° |
| 2026-04-27 18:02 | 40.99504 | 16.58890 | 22557 ft | 398 kts | 265° |
| 2026-04-27 18:02 | 40.99184 | 16.55247 | 23127 ft | 401 kts | 265° |
| 2026-04-27 18:02 | 40.98861 | 16.51566 | 23673 ft | 403 kts | 265° |
| 2026-04-27 18:03 | 40.98534 | 16.47867 | 24199 ft | 406 kts | 265° |
| 2026-04-27 18:03 | 40.98204 | 16.44144 | 24722 ft | 409 kts | 265° |
| 2026-04-27 18:03 | 40.97871 | 16.40394 | 25207 ft | 412 kts | 265° |
| 2026-04-27 18:03 | 40.97535 | 16.36622 | 25698 ft | 414 kts | 265° |
| 2026-04-27 18:04 | 40.97196 | 16.32832 | 26182 ft | 416 kts | 265° |
| 2026-04-27 18:04 | 40.96854 | 16.29020 | 26628 ft | 419 kts | 265° |
| 2026-04-27 18:04 | 40.96508 | 16.25188 | 27061 ft | 421 kts | 265° |
| 2026-04-27 18:04 | 40.96160 | 16.21330 | 27470 ft | 424 kts | 265° |
| 2026-04-27 18:05 | 40.95808 | 16.17450 | 27891 ft | 426 kts | 264° |
| 2026-04-27 18:05 | 40.95443 | 16.13557 | 28287 ft | 428 kts | 262° |
| 2026-04-27 18:05 | 40.94593 | 16.09762 | 28621 ft | 436 kts | 245° |
| 2026-04-27 18:05 | 40.92973 | 16.06358 | 29033 ft | 439 kts | 237° |
| 2026-04-27 18:06 | 40.91177 | 16.03094 | 29530 ft | 438 kts | 236° |
| 2026-04-27 18:06 | 40.89371 | 15.99863 | 30069 ft | 436 kts | 236° |
| 2026-04-27 18:06 | 40.87579 | 15.96646 | 30562 ft | 434 kts | 236° |
| 2026-04-27 18:06 | 40.85799 | 15.93419 | 30963 ft | 435 kts | 237° |
| 2026-04-27 18:07 | 40.84029 | 15.90182 | 31381 ft | 434 kts | 237° |
| 2026-04-27 18:07 | 40.82271 | 15.86950 | 31803 ft | 433 kts | 237° |
| 2026-04-27 18:07 | 40.80512 | 15.83715 | 32147 ft | 435 kts | 237° |
| 2026-04-27 18:07 | 40.78744 | 15.80464 | 32431 ft | 437 kts | 237° |
| 2026-04-27 18:08 | 40.76976 | 15.77216 | 32867 ft | 435 kts | 237° |
| 2026-04-27 18:08 | 40.75207 | 15.73971 | 33112 ft | 437 kts | 237° |
| 2026-04-27 18:08 | 40.71648 | 15.67459 | 33111 ft | 436 kts | 236° |
| 2026-04-27 18:09 | 40.67867 | 15.61271 | 33123 ft | 434 kts | 232° |
| 2026-04-27 18:09 | 40.63931 | 15.55230 | 33126 ft | 435 kts | 232° |
| 2026-04-27 18:10 | 40.60002 | 15.49167 | 33118 ft | 436 kts | 232° |
| 2026-04-27 18:10 | 40.56088 | 15.43077 | 33132 ft | 436 kts | 232° |
| 2026-04-27 18:11 | 40.52179 | 15.36992 | 33126 ft | 436 kts | 232° |
| 2026-04-27 18:11 | 40.48260 | 15.30902 | 33088 ft | 437 kts | 232° |
| 2026-04-27 18:12 | 40.44336 | 15.24819 | 33090 ft | 437 kts | 232° |
| 2026-04-27 18:12 | 40.40415 | 15.18801 | 33070 ft | 436 kts | 231° |
| 2026-04-27 18:13 | 40.36317 | 15.12870 | 33089 ft | 435 kts | 230° |
| 2026-04-27 18:13 | 40.32223 | 15.07023 | 33089 ft | 435 kts | 230° |
| 2026-04-27 18:14 | 40.28144 | 15.01168 | 33098 ft | 435 kts | 230° |
| 2026-04-27 18:14 | 40.24077 | 14.95314 | 33088 ft | 434 kts | 230° |
| 2026-04-27 18:15 | 40.20013 | 14.89471 | 33100 ft | 434 kts | 230° |
| 2026-04-27 18:15 | 40.15948 | 14.83642 | 33088 ft | 434 kts | 230° |
| 2026-04-27 18:16 | 40.11880 | 14.77813 | 33093 ft | 434 kts | 230° |
| 2026-04-27 18:16 | 40.07808 | 14.71991 | 33094 ft | 434 kts | 230° |
| 2026-04-27 18:17 | 40.04415 | 14.67150 | 33092 ft | 435 kts | 230° |
| 2026-04-27 18:17 | 40.00325 | 14.61325 | 33095 ft | 436 kts | 230° |
| 2026-04-27 18:18 | 39.95560 | 14.54551 | 33103 ft | 436 kts | 230° |
| 2026-04-27 18:18 | 39.92123 | 14.49674 | 33101 ft | 436 kts | 230° |
| 2026-04-27 18:19 | 39.88021 | 14.43863 | 33103 ft | 436 kts | 230° |
| 2026-04-27 18:19 | 39.83916 | 14.38062 | 33100 ft | 435 kts | 230° |
| 2026-04-27 18:20 | 39.79811 | 14.32271 | 33101 ft | 435 kts | 229° |
| 2026-04-27 18:20 | 39.75699 | 14.26476 | 33103 ft | 436 kts | 229° |
| 2026-04-27 18:21 | 39.71583 | 14.20692 | 33101 ft | 436 kts | 229° |
| 2026-04-27 18:21 | 39.67464 | 14.14915 | 33085 ft | 436 kts | 229° |
| 2026-04-27 18:22 | 39.65394 | 14.12015 | 32606 ft | 439 kts | 229° |
| 2026-04-27 18:22 | 39.63335 | 14.09134 | 32196 ft | 433 kts | 229° |
| 2026-04-27 18:22 | 39.61295 | 14.06282 | 31716 ft | 429 kts | 229° |
| 2026-04-27 18:22 | 39.59271 | 14.03455 | 31249 ft | 426 kts | 229° |
| 2026-04-27 18:23 | 39.57265 | 14.00656 | 30783 ft | 422 kts | 229° |
| 2026-04-27 18:23 | 39.55273 | 13.97876 | 30320 ft | 419 kts | 229° |
| 2026-04-27 18:23 | 39.53296 | 13.95124 | 29857 ft | 416 kts | 229° |
| 2026-04-27 18:23 | 39.51334 | 13.92389 | 29389 ft | 413 kts | 229° |
| 2026-04-27 18:24 | 39.49384 | 13.89678 | 28913 ft | 410 kts | 229° |
| 2026-04-27 18:24 | 39.47449 | 13.86986 | 28439 ft | 407 kts | 229° |
| 2026-04-27 18:24 | 39.45525 | 13.84315 | 27967 ft | 404 kts | 229° |
| 2026-04-27 18:24 | 39.43556 | 13.81739 | 27488 ft | 403 kts | 222° |
| 2026-04-27 18:25 | 39.41281 | 13.79625 | 27028 ft | 402 kts | 212° |
| 2026-04-27 18:25 | 39.38778 | 13.78026 | 26557 ft | 402 kts | 203° |
| 2026-04-27 18:25 | 39.36157 | 13.76808 | 26103 ft | 399 kts | 201° |
| 2026-04-27 18:25 | 39.33534 | 13.75650 | 25630 ft | 397 kts | 200° |
| 2026-04-27 18:26 | 39.30928 | 13.74509 | 25176 ft | 394 kts | 201° |
| 2026-04-27 18:26 | 39.28374 | 13.73383 | 24725 ft | 392 kts | 201° |
| 2026-04-27 18:26 | 39.25803 | 13.72238 | 24271 ft | 389 kts | 201° |
| 2026-04-27 18:26 | 39.23253 | 13.71094 | 23821 ft | 387 kts | 201° |
| 2026-04-27 18:27 | 39.20719 | 13.69951 | 23368 ft | 385 kts | 201° |
| 2026-04-27 18:27 | 39.18201 | 13.68812 | 22920 ft | 382 kts | 201° |
| 2026-04-27 18:27 | 39.15701 | 13.67680 | 22472 ft | 380 kts | 201° |
| 2026-04-27 18:27 | 39.13214 | 13.66555 | 22022 ft | 378 kts | 201° |
| 2026-04-27 18:28 | 39.10743 | 13.65439 | 21579 ft | 375 kts | 201° |
| 2026-04-27 18:28 | 39.08285 | 13.64331 | 21136 ft | 373 kts | 201° |
| 2026-04-27 18:28 | 39.05844 | 13.63229 | 20694 ft | 371 kts | 201° |
| 2026-04-27 18:28 | 39.03412 | 13.62132 | 20259 ft | 369 kts | 201° |
| 2026-04-27 18:29 | 39.00994 | 13.61043 | 19825 ft | 367 kts | 201° |
| 2026-04-27 18:29 | 38.98590 | 13.59960 | 19392 ft | 365 kts | 201° |
| 2026-04-27 18:29 | 38.96196 | 13.58883 | 18956 ft | 363 kts | 201° |
| 2026-04-27 18:29 | 38.93816 | 13.57813 | 18529 ft | 361 kts | 201° |
| 2026-04-27 18:30 | 38.91448 | 13.56749 | 18100 ft | 359 kts | 201° |
| 2026-04-27 18:30 | 38.89095 | 13.55693 | 17675 ft | 357 kts | 201° |
| 2026-04-27 18:30 | 38.86755 | 13.54640 | 17252 ft | 355 kts | 202° |
| 2026-04-27 18:30 | 38.84526 | 13.53317 | 16770 ft | 352 kts | 212° |
| 2026-04-27 18:31 | 38.82514 | 13.51497 | 16169 ft | 354 kts | 219° |
| 2026-04-27 18:31 | 38.80569 | 13.49564 | 15702 ft | 353 kts | 220° |
| 2026-04-27 18:31 | 38.78646 | 13.47636 | 15285 ft | 350 kts | 219° |
| 2026-04-27 18:31 | 38.76736 | 13.45727 | 14866 ft | 347 kts | 219° |
| 2026-04-27 18:32 | 38.74837 | 13.43840 | 14474 ft | 344 kts | 219° |
| 2026-04-27 18:32 | 38.72954 | 13.41976 | 14070 ft | 341 kts | 219° |
| 2026-04-27 18:32 | 38.71083 | 13.40133 | 13685 ft | 338 kts | 219° |
| 2026-04-27 18:32 | 38.69228 | 13.38309 | 13301 ft | 335 kts | 219° |
| 2026-04-27 18:33 | 38.67391 | 13.36506 | 12925 ft | 331 kts | 219° |
| 2026-04-27 18:33 | 38.65569 | 13.34719 | 12561 ft | 328 kts | 219° |
| 2026-04-27 18:33 | 38.63763 | 13.32950 | 12199 ft | 326 kts | 219° |
| 2026-04-27 18:33 | 38.61970 | 13.31197 | 11824 ft | 323 kts | 219° |
| 2026-04-27 18:34 | 38.60192 | 13.29459 | 11448 ft | 321 kts | 219° |
| 2026-04-27 18:34 | 38.58425 | 13.27732 | 11072 ft | 319 kts | 219° |
| 2026-04-27 18:34 | 38.56669 | 13.26016 | 10687 ft | 317 kts | 218° |
| 2026-04-27 18:34 | 38.54940 | 13.24328 | 10517 ft | 308 kts | 218° |
| 2026-04-27 18:35 | 38.53261 | 13.22691 | 10374 ft | 299 kts | 218° |
| 2026-04-27 18:35 | 38.51630 | 13.21101 | 10235 ft | 291 kts | 218° |
| 2026-04-27 18:35 | 38.50046 | 13.19559 | 10110 ft | 282 kts | 218° |
| 2026-04-27 18:35 | 38.48508 | 13.18061 | 9875 ft | 278 kts | 218° |
| 2026-04-27 18:36 | 38.46987 | 13.16580 | 9599 ft | 276 kts | 218° |
| 2026-04-27 18:36 | 38.45463 | 13.15097 | 9330 ft | 275 kts | 218° |
| 2026-04-27 18:36 | 38.43947 | 13.13622 | 9045 ft | 274 kts | 218° |
| 2026-04-27 18:36 | 38.42434 | 13.12152 | 8756 ft | 273 kts | 218° |
| 2026-04-27 18:37 | 38.40928 | 13.10691 | 8467 ft | 271 kts | 218° |
| 2026-04-27 18:37 | 38.39429 | 13.09235 | 8178 ft | 271 kts | 218° |
| 2026-04-27 18:37 | 38.37938 | 13.07788 | 7983 ft | 266 kts | 218° |
| 2026-04-27 18:37 | 38.36485 | 13.06378 | 7842 ft | 259 kts | 218° |
| 2026-04-27 18:38 | 38.35070 | 13.05008 | 7723 ft | 252 kts | 217° |
| 2026-04-27 18:38 | 38.33694 | 13.03676 | 7610 ft | 245 kts | 217° |
| 2026-04-27 18:38 | 38.32359 | 13.02385 | 7503 ft | 238 kts | 217° |
| 2026-04-27 18:38 | 38.31179 | 13.00967 | 7321 ft | 233 kts | 239° |
| 2026-04-27 18:39 | 38.30534 | 12.99109 | 7141 ft | 228 kts | 247° |
| 2026-04-27 18:39 | 38.29915 | 12.97247 | 6920 ft | 228 kts | 246° |
| 2026-04-27 18:39 | 38.29292 | 12.95398 | 6667 ft | 227 kts | 246° |
| 2026-04-27 18:39 | 38.28670 | 12.93554 | 6435 ft | 226 kts | 246° |
| 2026-04-27 18:40 | 38.28050 | 12.91718 | 6200 ft | 226 kts | 246° |
| 2026-04-27 18:40 | 38.27431 | 12.89887 | 5979 ft | 224 kts | 246° |
| 2026-04-27 18:40 | 38.26817 | 12.88072 | 5749 ft | 222 kts | 246° |
| 2026-04-27 18:40 | 38.26206 | 12.86267 | 5529 ft | 222 kts | 246° |
| 2026-04-27 18:41 | 38.25578 | 12.84481 | 5295 ft | 221 kts | 239° |
| 2026-04-27 18:41 | 38.24480 | 12.83173 | 5041 ft | 219 kts | 201° |
| 2026-04-27 18:41 | 38.22991 | 12.82947 | 4858 ft | 221 kts | 171° |
| 2026-04-27 18:41 | 38.21496 | 12.83549 | 4588 ft | 229 kts | 157° |
| 2026-04-27 18:42 | 38.20032 | 12.84363 | 4343 ft | 230 kts | 156° |
| 2026-04-27 18:42 | 38.19062 | 12.84910 | 4177 ft | 230 kts | 156° |
| 2026-04-27 18:42 | 38.17091 | 12.86003 | 3657 ft | 236 kts | 157° |
| 2026-04-27 18:42 | 38.15577 | 12.86832 | 3437 ft | 228 kts | 157° |
| 2026-04-27 18:43 | 38.14158 | 12.87601 | 3396 ft | 216 kts | 157° |
| 2026-04-27 18:43 | 38.12803 | 12.88377 | 3171 ft | 209 kts | 147° |
| 2026-04-27 18:43 | 38.11949 | 12.89746 | 2947 ft | 197 kts | 103° |
| 2026-04-27 18:43 | 38.12015 | 12.91404 | 2791 ft | 182 kts | 78° |
| 2026-04-27 18:44 | 38.12325 | 12.92926 | 2586 ft | 175 kts | 73° |
| 2026-04-27 18:44 | 38.12677 | 12.94374 | 2451 ft | 169 kts | 70° |
| 2026-04-27 18:44 | 38.13111 | 12.95771 | 2234 ft | 171 kts | 67° |
| 2026-04-27 18:44 | 38.13573 | 12.97154 | 2008 ft | 168 kts | 67° |
| 2026-04-27 18:45 | 38.14018 | 12.98481 | 1796 ft | 159 kts | 67° |
| 2026-04-27 18:45 | 38.14448 | 12.99765 | 1578 ft | 155 kts | 68° |
| 2026-04-27 18:45 | 38.14865 | 13.01009 | 1420 ft | 151 kts | 68° |
| 2026-04-27 18:45 | 38.15275 | 13.02233 | 1167 ft | 148 kts | 68° |
| 2026-04-27 18:46 | 38.15673 | 13.03424 | 976 ft | 147 kts | 68° |
| 2026-04-27 18:46 | 38.16070 | 13.04609 | 810 ft | 145 kts | 68° |
| 2026-04-27 18:46 | 38.16469 | 13.05798 | 634 ft | 147 kts | 68° |
| 2026-04-27 18:46 | 38.16878 | 13.07002 | 386 ft | 150 kts | 68° |
| 2026-04-27 18:47 | 38.17284 | 13.08197 | 208 ft | 144 kts | 68° |
| 2026-04-27 18:47 | 38.17665 | 13.09339 | 73 ft | 137 kts | 70° |
| 2026-04-27 18:47 | 38.17997 | 13.10333 | 65 ft | 105 kts | 67° |
| 2026-04-27 18:47 | 38.18245 | 13.11074 | 63 ft | 82 kts | 67° |
| 2026-04-27 18:48 | 38.18452 | 13.11690 | 66 ft | 61 kts | 67° |
| 2026-04-27 18:48 | 38.18554 | 13.11892 | 68 ft | 14 kts | 348° |
| 2026-04-27 18:48 | 38.18597 | 13.11790 | 60 ft | 15 kts | 277° |
| 2026-04-27 18:48 | 38.18610 | 13.11663 | 62 ft | 14 kts | 278° |
| 2026-04-27 18:49 | 38.18610 | 13.11543 | 62 ft | 13 kts | 251° |
| 2026-04-27 18:49 | 38.18574 | 13.11436 | 62 ft | 13 kts | 247° |
| 2026-04-27 18:49 | 38.18535 | 13.11317 | 57 ft | 17 kts | 247° |
| 2026-04-27 18:49 | 38.18484 | 13.11164 | 61 ft | 21 kts | 247° |
| 2026-04-27 18:50 | 38.18429 | 13.11003 | 58 ft | 16 kts | 253° |
| 2026-04-27 18:50 | 38.18472 | 13.10878 | 61 ft | 16 kts | 285° |
| 2026-04-27 18:50 | 38.18499 | 13.10773 | 64 ft | 10 kts | 289° |
| 2026-04-27 18:50 | 38.18522 | 13.10691 | 57 ft | 9 kts | 312° |
| 2026-04-27 18:51 | 38.18553 | 13.10672 | 60 ft | 2 kts | 336° |
| 2026-04-27 18:51 | 38.18564 | 13.10665 | 59 ft | 1 kts | 336° |
| 2026-04-27 18:51 | 38.18567 | 13.10664 | 64 ft | 0 kts | 336° |